Waynesville, Illinois
Current Conditions -  °F | °C
As of 6:55 AM on Saturday 01 Nov 2014 (Local Time) from KAAA Reporting Station
Clear Clear  
Wind Chill: 23°   Ceiling: Unl
Heat Index: 28°   Visibility: 10mi
Dew Point: 22°   Wind: 5mph
Humidity: 78%   Direction: 310°NW
Pressure: 30.43"   Gusts: NA
Location:  40.24°N, 89.12°W
Report Text: KAAA 011155Z AUTO 31004KT 10SM CLR M02/M05 A3043 RMK AO2 T10201053 10007 21020
Loading
Personal Weather Stations






























Interactive Weather Map
Tropical Storm Tracking
New forecast layout! Learn more

10-Day Weather Forecast

Advertisements
Track Severe Weather on mobile